sensor_id;sensor_type;location;lat;lon;timestamp;pressure;altitude;pressure_sealevel;temperature;humidity
61805;BME280;47725;47.912;7.356;2022-07-23T00:00:55;99204.90;;;28.78;44.07
61805;BME280;47725;47.912;7.356;2022-07-23T00:04:55;99205.88;;;28.77;44.09
61805;BME280;47725;47.912;7.356;2022-07-23T00:08:55;99203.68;;;28.76;44.11
61805;BME280;47725;47.912;7.356;2022-07-23T00:12:55;99201.51;;;28.75;44.11
61805;BME280;47725;47.912;7.356;2022-07-23T00:16:55;99198.58;;;28.75;44.11
61805;BME280;47725;47.912;7.356;2022-07-23T00:20:55;99195.99;;;28.75;44.14
61805;BME280;47725;47.912;7.356;2022-07-23T00:24:55;99190.78;;;28.74;44.14
61805;BME280;47725;47.912;7.356;2022-07-23T00:28:55;99184.88;;;28.74;44.15
61805;BME280;47725;47.912;7.356;2022-07-23T00:32:57;99180.19;;;28.74;44.14
61805;BME280;47725;47.912;7.356;2022-07-23T00:36:55;99172.58;;;28.75;44.17
61805;BME280;47725;47.912;7.356;2022-07-23T00:40:55;99170.04;;;28.74;44.39
61805;BME280;47725;47.912;7.356;2022-07-23T00:44:55;99172.52;;;28.70;44.52
61805;BME280;47725;47.912;7.356;2022-07-23T00:48:55;99169.23;;;28.69;44.43
61805;BME280;47725;47.912;7.356;2022-07-23T00:52:55;99165.61;;;28.67;44.54
61805;BME280;47725;47.912;7.356;2022-07-23T00:56:55;99165.09;;;28.66;44.56
61805;BME280;47725;47.912;7.356;2022-07-23T01:00:55;99163.97;;;28.65;44.61
61805;BME280;47725;47.912;7.356;2022-07-23T01:04:55;99163.73;;;28.64;44.59
61805;BME280;47725;47.912;7.356;2022-07-23T01:08:55;99166.88;;;28.63;44.64
61805;BME280;47725;47.912;7.356;2022-07-23T01:12:55;99167.22;;;28.62;44.63
61805;BME280;47725;47.912;7.356;2022-07-23T01:16:55;99165.52;;;28.62;44.63
61805;BME280;47725;47.912;7.356;2022-07-23T01:20:55;99164.18;;;28.61;44.64
61805;BME280;47725;47.912;7.356;2022-07-23T01:24:55;99161.08;;;28.61;44.63
61805;BME280;47725;47.912;7.356;2022-07-23T01:28:55;99159.47;;;28.63;44.39
61805;BME280;47725;47.912;7.356;2022-07-23T01:32:55;99159.66;;;28.66;44.36
61805;BME280;47725;47.912;7.356;2022-07-23T01:36:55;99158.25;;;28.67;44.36
61805;BME280;47725;47.912;7.356;2022-07-23T01:40:55;99157.61;;;28.69;44.35
61805;BME280;47725;47.912;7.356;2022-07-23T01:44:55;99154.46;;;28.70;44.39
61805;BME280;47725;47.912;7.356;2022-07-23T01:48:55;99154.71;;;28.71;44.39
61805;BME280;47725;47.912;7.356;2022-07-23T01:52:55;99153.89;;;28.71;44.40
61805;BME280;47725;47.912;7.356;2022-07-23T01:56:55;99155.24;;;28.72;44.38
61805;BME280;47725;47.912;7.356;2022-07-23T02:00:55;99154.81;;;28.72;44.39
61805;BME280;47725;47.912;7.356;2022-07-23T02:04:55;99155.56;;;28.72;44.45
61805;BME280;47725;47.912;7.356;2022-07-23T02:08:55;99157.98;;;28.72;44.47
61805;BME280;47725;47.912;7.356;2022-07-23T02:12:55;99159.48;;;28.72;44.43
61805;BME280;47725;47.912;7.356;2022-07-23T02:16:55;99162.03;;;28.80;43.46
61805;BME280;47725;47.912;7.356;2022-07-23T02:20:55;99162.83;;;28.89;43.38
61805;BME280;47725;47.912;7.356;2022-07-23T02:24:55;99165.28;;;28.96;43.36
61805;BME280;47725;47.912;7.356;2022-07-23T02:28:55;99168.21;;;29.02;43.37
61805;BME280;47725;47.912;7.356;2022-07-23T02:32:55;99171.95;;;29.07;43.33
61805;BME280;47725;47.912;7.356;2022-07-23T02:36:55;99172.08;;;29.10;43.34
61805;BME280;47725;47.912;7.356;2022-07-23T02:40:55;99172.67;;;29.12;43.38
61805;BME280;47725;47.912;7.356;2022-07-23T02:44:55;99174.65;;;29.14;43.39
61805;BME280;47725;47.912;7.356;2022-07-23T02:48:55;99180.02;;;29.16;43.38
61805;BME280;47725;47.912;7.356;2022-07-23T02:52:55;99183.95;;;29.17;43.38
61805;BME280;47725;47.912;7.356;2022-07-23T02:56:55;99186.49;;;29.18;43.39
61805;BME280;47725;47.912;7.356;2022-07-23T03:00:55;99188.53;;;29.15;43.60
61805;BME280;47725;47.912;7.356;2022-07-23T03:04:55;99195.09;;;29.16;43.44
61805;BME280;47725;47.912;7.356;2022-07-23T03:08:55;99207.05;;;29.16;43.43
61805;BME280;47725;47.912;7.356;2022-07-23T03:12:55;99218.70;;;29.17;43.43
61805;BME280;47725;47.912;7.356;2022-07-23T03:16:55;99231.61;;;29.08;44.46
61805;BME280;47725;47.912;7.356;2022-07-23T03:20:55;99243.50;;;29.05;43.75
61805;BME280;47725;47.912;7.356;2022-07-23T03:24:55;99250.16;;;29.07;43.53
61805;BME280;47725;47.912;7.356;2022-07-23T03:28:55;99255.24;;;28.99;44.75
61805;BME280;47725;47.912;7.356;2022-07-23T03:32:55;99257.93;;;28.90;44.91
61805;BME280;47725;47.912;7.356;2022-07-23T03:36:55;99264.00;;;28.83;44.96
61805;BME280;47725;47.912;7.356;2022-07-23T03:40:55;99267.55;;;28.80;44.40
61805;BME280;47725;47.912;7.356;2022-07-23T03:44:55;99270.48;;;28.80;44.69
61805;BME280;47725;47.912;7.356;2022-07-23T03:48:55;99271.41;;;28.76;44.97
61805;BME280;47725;47.912;7.356;2022-07-23T03:52:55;99271.52;;;28.71;45.01
61805;BME280;47725;47.912;7.356;2022-07-23T03:56:55;99274.30;;;28.74;44.18
61805;BME280;47725;47.912;7.356;2022-07-23T04:00:55;99274.49;;;28.80;43.96
61805;BME280;47725;47.912;7.356;2022-07-23T04:04:55;99273.83;;;28.86;43.91
61805;BME280;47725;47.912;7.356;2022-07-23T04:08:55;99274.58;;;28.90;43.92
61805;BME280;47725;47.912;7.356;2022-07-23T04:12:55;99275.55;;;28.93;43.90
61805;BME280;47725;47.912;7.356;2022-07-23T04:16:55;99278.53;;;28.96;43.90
61805;BME280;47725;47.912;7.356;2022-07-23T04:20:55;99282.06;;;28.98;43.90
61805;BME280;47725;47.912;7.356;2022-07-23T04:24:55;99285.10;;;29.00;43.89
61805;BME280;47725;47.912;7.356;2022-07-23T04:28:55;99288.47;;;29.01;43.90
61805;BME280;47725;47.912;7.356;2022-07-23T04:32:55;99292.88;;;28.95;44.87
61805;BME280;47725;47.912;7.356;2022-07-23T04:36:55;99295.94;;;28.87;45.03
61805;BME280;47725;47.912;7.356;2022-07-23T04:40:54;99298.52;;;28.80;45.07
61805;BME280;47725;47.912;7.356;2022-07-23T04:44:55;99302.42;;;28.75;45.11
61805;BME280;47725;47.912;7.356;2022-07-23T04:48:55;99306.39;;;28.71;45.13
61805;BME280;47725;47.912;7.356;2022-07-23T04:52:55;99309.52;;;28.68;45.15
61805;BME280;47725;47.912;7.356;2022-07-23T04:56:55;99309.70;;;28.66;45.13
61805;BME280;47725;47.912;7.356;2022-07-23T05:00:55;99308.80;;;28.65;45.12
61805;BME280;47725;47.912;7.356;2022-07-23T05:04:55;99309.66;;;28.63;45.14
61805;BME280;47725;47.912;7.356;2022-07-23T05:08:54;99307.79;;;28.62;45.15
61805;BME280;47725;47.912;7.356;2022-07-23T05:12:54;99307.29;;;28.61;45.13
61805;BME280;47725;47.912;7.356;2022-07-23T05:16:54;99309.59;;;28.60;45.19
61805;BME280;47725;47.912;7.356;2022-07-23T05:20:54;99314.03;;;28.59;45.19
61805;BME280;47725;47.912;7.356;2022-07-23T05:24:54;99317.43;;;28.59;45.20
61805;BME280;47725;47.912;7.356;2022-07-23T05:28:54;99320.33;;;28.58;45.21
61805;BME280;47725;47.912;7.356;2022-07-23T05:32:54;99323.17;;;28.57;45.18
61805;BME280;47725;47.912;7.356;2022-07-23T05:36:54;99326.23;;;28.57;45.23
61805;BME280;47725;47.912;7.356;2022-07-23T05:40:55;99326.23;;;28.57;45.22
61805;BME280;47725;47.912;7.356;2022-07-23T05:44:54;99327.23;;;28.57;45.21
61805;BME280;47725;47.912;7.356;2022-07-23T05:48:55;99328.58;;;28.57;45.23
61805;BME280;47725;47.912;7.356;2022-07-23T05:52:54;99330.91;;;28.57;45.23
61805;BME280;47725;47.912;7.356;2022-07-23T05:56:54;99332.75;;;28.57;45.24
61805;BME280;47725;47.912;7.356;2022-07-23T06:00:54;99334.42;;;28.57;45.24
61805;BME280;47725;47.912;7.356;2022-07-23T06:04:54;99337.94;;;28.57;45.25
61805;BME280;47725;47.912;7.356;2022-07-23T06:08:54;99339.86;;;28.57;45.23
61805;BME280;47725;47.912;7.356;2022-07-23T06:12:54;99340.39;;;28.57;45.14
61805;BME280;47725;47.912;7.356;2022-07-23T06:16:54;99342.70;;;28.60;44.94
61805;BME280;47725;47.912;7.356;2022-07-23T06:20:54;99344.76;;;28.62;44.92
61805;BME280;47725;47.912;7.356;2022-07-23T06:24:54;99346.72;;;28.64;44.91
61805;BME280;47725;47.912;7.356;2022-07-23T06:28:54;99349.00;;;28.65;44.93
61805;BME280;47725;47.912;7.356;2022-07-23T06:32:54;99354.30;;;28.67;44.81
61805;BME280;47725;47.912;7.356;2022-07-23T06:36:54;99360.37;;;28.71;44.65
61805;BME280;47725;47.912;7.356;2022-07-23T06:40:54;99364.86;;;28.74;44.57
61805;BME280;47725;47.912;7.356;2022-07-23T06:44:54;99366.61;;;28.73;44.93
61805;BME280;47725;47.912;7.356;2022-07-23T06:48:54;99365.69;;;28.74;44.69
61805;BME280;47725;47.912;7.356;2022-07-23T06:52:54;99363.75;;;28.71;45.21
61805;BME280;47725;47.912;7.356;2022-07-23T06:56:54;99363.23;;;28.68;45.29
61805;BME280;47725;47.912;7.356;2022-07-23T07:00:54;99361.49;;;28.68;45.00
61805;BME280;47725;47.912;7.356;2022-07-23T07:04:54;99359.48;;;28.67;45.12
61805;BME280;47725;47.912;7.356;2022-07-23T07:08:54;99359.25;;;28.65;45.31
61805;BME280;47725;47.912;7.356;2022-07-23T07:12:54;99360.26;;;28.65;45.04
61805;BME280;47725;47.912;7.356;2022-07-23T07:16:54;99360.26;;;28.68;44.61
61805;BME280;47725;47.912;7.356;2022-07-23T07:20:54;99361.49;;;28.72;44.58
61805;BME280;47725;47.912;7.356;2022-07-23T07:24:54;99364.63;;;28.75;44.58
61805;BME280;47725;47.912;7.356;2022-07-23T07:28:54;99369.26;;;28.76;44.78
61805;BME280;47725;47.912;7.356;2022-07-23T07:32:54;99373.33;;;28.75;44.93
61805;BME280;47725;47.912;7.356;2022-07-23T07:36:54;99376.31;;;28.74;44.93
61805;BME280;47725;47.912;7.356;2022-07-23T07:40:55;99379.16;;;28.73;44.95
61805;BME280;47725;47.912;7.356;2022-07-23T07:44:54;99380.97;;;28.72;44.98
61805;BME280;47725;47.912;7.356;2022-07-23T07:48:54;99380.80;;;28.72;44.96
61805;BME280;47725;47.912;7.356;2022-07-23T07:52:54;99380.97;;;28.71;44.98
61805;BME280;47725;47.912;7.356;2022-07-23T07:56:54;99381.63;;;28.71;44.95
61805;BME280;47725;47.912;7.356;2022-07-23T08:00:54;99381.02;;;28.71;44.94
61805;BME280;47725;47.912;7.356;2022-07-23T08:04:54;99381.10;;;28.71;44.94
61805;BME280;47725;47.912;7.356;2022-07-23T08:08:54;99381.44;;;28.71;44.94
61805;BME280;47725;47.912;7.356;2022-07-23T08:12:55;99380.35;;;28.71;44.91
61805;BME280;47725;47.912;7.356;2022-07-23T08:16:54;99380.22;;;28.71;44.91
61805;BME280;47725;47.912;7.356;2022-07-23T08:20:54;99381.88;;;28.71;44.91
61805;BME280;47725;47.912;7.356;2022-07-23T08:24:55;99384.56;;;28.71;44.89
61805;BME280;47725;47.912;7.356;2022-07-23T08:28:54;99387.73;;;28.71;44.89
61805;BME280;47725;47.912;7.356;2022-07-23T08:32:55;99389.65;;;28.71;44.93
61805;BME280;47725;47.912;7.356;2022-07-23T08:36:54;99392.00;;;28.71;44.91
61805;BME280;47725;47.912;7.356;2022-07-23T08:40:55;99394.06;;;28.71;44.93
61805;BME280;47725;47.912;7.356;2022-07-23T08:44:54;99394.73;;;28.71;44.91
61805;BME280;47725;47.912;7.356;2022-07-23T08:48:54;99395.57;;;28.74;44.52
61805;BME280;47725;47.912;7.356;2022-07-23T08:52:54;99395.70;;;28.78;44.47
61805;BME280;47725;47.912;7.356;2022-07-23T08:56:54;99395.23;;;28.79;44.66
61805;BME280;47725;47.912;7.356;2022-07-23T09:00:55;99394.29;;;28.78;44.83
61805;BME280;47725;47.912;7.356;2022-07-23T09:04:54;99394.17;;;28.77;44.81
61805;BME280;47725;47.912;7.356;2022-07-23T09:08:54;99393.51;;;28.77;44.79
61805;BME280;47725;47.912;7.356;2022-07-23T09:12:54;99392.92;;;28.76;44.77
61805;BME280;47725;47.912;7.356;2022-07-23T09:16:55;99392.75;;;28.76;44.81
61805;BME280;47725;47.912;7.356;2022-07-23T09:25:07;99394.09;;;28.76;44.82
61805;BME280;47725;47.912;7.356;2022-07-23T09:28:55;99394.76;;;28.77;44.76
61805;BME280;47725;47.912;7.356;2022-07-23T09:36:55;99397.21;;;28.78;44.71
61805;BME280;47725;47.912;7.356;2022-07-23T09:41:10;99397.33;;;28.79;44.69
61805;BME280;47725;47.912;7.356;2022-07-23T09:44:55;99399.00;;;28.79;44.71
61805;BME280;47725;47.912;7.356;2022-07-23T09:48:55;99400.50;;;28.80;44.69
61805;BME280;47725;47.912;7.356;2022-07-23T09:52:54;99402.25;;;28.80;44.70
61805;BME280;47725;47.912;7.356;2022-07-23T09:56:55;99404.21;;;28.80;44.69
61805;BME280;47725;47.912;7.356;2022-07-23T10:00:55;99406.72;;;28.81;44.66
61805;BME280;47725;47.912;7.356;2022-07-23T10:04:54;99407.97;;;28.81;44.67
61805;BME280;47725;47.912;7.356;2022-07-23T10:08:54;99409.39;;;28.81;44.66
61805;BME280;47725;47.912;7.356;2022-07-23T10:12:55;99411.31;;;28.82;44.65
61805;BME280;47725;47.912;7.356;2022-07-23T10:16:54;99413.01;;;28.82;44.63
61805;BME280;47725;47.912;7.356;2022-07-23T10:20:54;99415.19;;;28.83;44.58
61805;BME280;47725;47.912;7.356;2022-07-23T10:37:07;99420.23;;;28.84;44.63
61805;BME280;47725;47.912;7.356;2022-07-23T10:41:04;99421.91;;;28.85;44.61
61805;BME280;47725;47.912;7.356;2022-07-23T10:44:54;99420.85;;;28.85;44.61
61805;BME280;47725;47.912;7.356;2022-07-23T10:53:10;99416.58;;;28.86;44.58
61805;BME280;47725;47.912;7.356;2022-07-23T11:00:54;99418.12;;;28.88;44.54
61805;BME280;47725;47.912;7.356;2022-07-23T11:04:58;99419.31;;;28.89;44.51
61805;BME280;47725;47.912;7.356;2022-07-23T11:09:23;99419.48;;;28.89;44.49
61805;BME280;47725;47.912;7.356;2022-07-23T11:12:54;99418.34;;;28.90;44.44
61805;BME280;47725;47.912;7.356;2022-07-23T11:16:54;99417.78;;;28.91;44.46
61805;BME280;47725;47.912;7.356;2022-07-23T11:20:54;99416.36;;;28.92;44.45
61805;BME280;47725;47.912;7.356;2022-07-23T11:24:54;99415.14;;;28.93;44.43
61805;BME280;47725;47.912;7.356;2022-07-23T11:28:54;99415.55;;;28.94;44.44
61805;BME280;47725;47.912;7.356;2022-07-23T11:32:55;99414.72;;;28.94;44.41
61805;BME280;47725;47.912;7.356;2022-07-23T11:36:54;99414.97;;;28.94;44.42
61805;BME280;47725;47.912;7.356;2022-07-23T11:40:55;99414.50;;;28.94;44.40
61805;BME280;47725;47.912;7.356;2022-07-23T11:44:54;99412.66;;;28.94;44.40
61805;BME280;47725;47.912;7.356;2022-07-23T11:49:01;99410.74;;;28.95;44.38
61805;BME280;47725;47.912;7.356;2022-07-23T11:52:54;99408.14;;;28.95;44.39
61805;BME280;47725;47.912;7.356;2022-07-23T11:56:55;99405.55;;;28.96;44.37
61805;BME280;47725;47.912;7.356;2022-07-23T12:00:54;99402.89;;;28.96;44.37
61805;BME280;47725;47.912;7.356;2022-07-23T12:04:54;99401.22;;;28.97;44.34
61805;BME280;47725;47.912;7.356;2022-07-23T12:08:54;99399.58;;;28.97;44.36
61805;BME280;47725;47.912;7.356;2022-07-23T12:12:55;99397.49;;;28.97;44.31
61805;BME280;47725;47.912;7.356;2022-07-23T12:17:07;99394.89;;;28.98;44.30
61805;BME280;47725;47.912;7.356;2022-07-23T12:20:56;99392.58;;;28.99;44.29
61805;BME280;47725;47.912;7.356;2022-07-23T12:24:55;99391.24;;;28.99;44.26
61805;BME280;47725;47.912;7.356;2022-07-23T12:28:54;99388.89;;;29.00;44.24
61805;BME280;47725;47.912;7.356;2022-07-23T12:32:55;99385.91;;;29.00;44.28
61805;BME280;47725;47.912;7.356;2022-07-23T12:36:54;99382.90;;;29.00;44.30
61805;BME280;47725;47.912;7.356;2022-07-23T12:40:58;99381.31;;;29.01;44.28
61805;BME280;47725;47.912;7.356;2022-07-23T12:48:54;99379.50;;;29.03;44.22
61805;BME280;47725;47.912;7.356;2022-07-23T12:53:01;99379.61;;;29.03;44.21
61805;BME280;47725;47.912;7.356;2022-07-23T12:56:54;99379.19;;;29.04;44.21
61805;BME280;47725;47.912;7.356;2022-07-23T13:00:58;99377.96;;;29.05;44.19
61805;BME280;47725;47.912;7.356;2022-07-23T13:04:54;99376.45;;;29.06;44.18
61805;BME280;47725;47.912;7.356;2022-07-23T13:08:54;99375.06;;;29.07;44.16
61805;BME280;47725;47.912;7.356;2022-07-23T13:12:54;99375.81;;;29.07;44.14
61805;BME280;47725;47.912;7.356;2022-07-23T13:16:54;99374.05;;;29.08;44.17
61805;BME280;47725;47.912;7.356;2022-07-23T13:20:54;99373.08;;;29.08;44.16
61805;BME280;47725;47.912;7.356;2022-07-23T13:24:54;99372.24;;;29.09;44.13
61805;BME280;47725;47.912;7.356;2022-07-23T13:28:54;99370.06;;;29.09;44.10
61805;BME280;47725;47.912;7.356;2022-07-23T13:32:54;99369.39;;;29.09;44.16
61805;BME280;47725;47.912;7.356;2022-07-23T13:36:54;99368.05;;;29.09;44.19
61805;BME280;47725;47.912;7.356;2022-07-23T13:40:54;99367.39;;;29.09;44.18
61805;BME280;47725;47.912;7.356;2022-07-23T13:44:54;99367.80;;;29.08;44.17
61805;BME280;47725;47.912;7.356;2022-07-23T13:48:54;99368.48;;;29.08;44.19
61805;BME280;47725;47.912;7.356;2022-07-23T13:52:54;99368.87;;;29.08;44.19
61805;BME280;47725;47.912;7.356;2022-07-23T13:56:54;99368.62;;;29.07;44.20
61805;BME280;47725;47.912;7.356;2022-07-23T14:00:54;99368.44;;;29.07;44.21
61805;BME280;47725;47.912;7.356;2022-07-23T14:04:54;99368.78;;;29.07;44.23
61805;BME280;47725;47.912;7.356;2022-07-23T14:08:54;99368.53;;;29.07;44.23
61805;BME280;47725;47.912;7.356;2022-07-23T14:12:54;99366.36;;;29.07;44.21
61805;BME280;47725;47.912;7.356;2022-07-23T14:16:54;99364.35;;;29.07;44.19
61805;BME280;47725;47.912;7.356;2022-07-23T14:20:54;99363.93;;;29.07;44.23
61805;BME280;47725;47.912;7.356;2022-07-23T14:24:54;99363.01;;;29.07;44.23
61805;BME280;47725;47.912;7.356;2022-07-23T14:28:54;99360.92;;;29.07;44.20
61805;BME280;47725;47.912;7.356;2022-07-23T14:32:54;99360.16;;;29.08;44.19
61805;BME280;47725;47.912;7.356;2022-07-23T14:36:54;99358.38;;;29.06;44.46
61805;BME280;47725;47.912;7.356;2022-07-23T14:40:54;99357.74;;;29.07;44.20
61805;BME280;47725;47.912;7.356;2022-07-23T14:44:54;99356.09;;;29.08;44.14
61805;BME280;47725;47.912;7.356;2022-07-23T14:48:54;99354.83;;;29.09;44.15
61805;BME280;47725;47.912;7.356;2022-07-23T14:52:54;99354.36;;;29.10;44.12
61805;BME280;47725;47.912;7.356;2022-07-23T14:56:55;99353.86;;;29.11;44.15
61805;BME280;47725;47.912;7.356;2022-07-23T15:00:54;99353.13;;;29.11;44.15
61805;BME280;47725;47.912;7.356;2022-07-23T15:04:54;99351.54;;;29.11;44.15
61805;BME280;47725;47.912;7.356;2022-07-23T15:08:54;99349.79;;;29.11;44.18
61805;BME280;47725;47.912;7.356;2022-07-23T15:12:54;99350.45;;;29.12;44.18
61805;BME280;47725;47.912;7.356;2022-07-23T15:16:54;99350.54;;;29.12;44.14
61805;BME280;47725;47.912;7.356;2022-07-23T15:20:54;99352.04;;;29.12;44.16
61805;BME280;47725;47.912;7.356;2022-07-23T15:24:54;99351.87;;;29.12;44.14
61805;BME280;47725;47.912;7.356;2022-07-23T15:28:54;99350.53;;;29.12;44.15
61805;BME280;47725;47.912;7.356;2022-07-23T15:32:54;99349.64;;;29.13;44.14
61805;BME280;47725;47.912;7.356;2022-07-23T15:36:54;99350.06;;;29.13;44.14
61805;BME280;47725;47.912;7.356;2022-07-23T15:40:54;99351.48;;;29.13;44.15
61805;BME280;47725;47.912;7.356;2022-07-23T15:44:54;99352.71;;;29.12;44.17
61805;BME280;47725;47.912;7.356;2022-07-23T15:48:54;99352.96;;;29.12;44.17
61805;BME280;47725;47.912;7.356;2022-07-23T15:52:54;99352.62;;;29.12;44.18
61805;BME280;47725;47.912;7.356;2022-07-23T15:56:54;99351.62;;;29.12;44.18
61805;BME280;47725;47.912;7.356;2022-07-23T16:00:54;99350.70;;;29.11;44.21
61805;BME280;47725;47.912;7.356;2022-07-23T16:04:54;99349.15;;;29.09;44.42
61805;BME280;47725;47.912;7.356;2022-07-23T16:08:54;99346.92;;;29.06;44.59
61805;BME280;47725;47.912;7.356;2022-07-23T16:12:54;99345.48;;;29.04;44.62
61805;BME280;47725;47.912;7.356;2022-07-23T16:16:54;99344.37;;;29.02;44.63
61805;BME280;47725;47.912;7.356;2022-07-23T16:20:54;99343.42;;;29.01;44.65
61805;BME280;47725;47.912;7.356;2022-07-23T16:24:54;99342.55;;;29.00;44.64
61805;BME280;47725;47.912;7.356;2022-07-23T16:28:54;99342.22;;;28.99;44.63
61805;BME280;47725;47.912;7.356;2022-07-23T16:32:54;99342.64;;;28.99;44.63
61805;BME280;47725;47.912;7.356;2022-07-23T16:36:54;99342.99;;;28.99;44.65
61805;BME280;47725;47.912;7.356;2022-07-23T16:40:54;99343.24;;;28.99;44.62
61805;BME280;47725;47.912;7.356;2022-07-23T16:44:54;99342.97;;;28.99;44.59
61805;BME280;47725;47.912;7.356;2022-07-23T16:48:54;99343.14;;;29.00;44.59
61805;BME280;47725;47.912;7.356;2022-07-23T16:52:54;99342.75;;;29.00;44.54
61805;BME280;47725;47.912;7.356;2022-07-23T16:56:54;99341.80;;;29.00;44.54
61805;BME280;47725;47.912;7.356;2022-07-23T17:00:54;99339.63;;;28.99;44.58
61805;BME280;47725;47.912;7.356;2022-07-23T17:04:54;99340.22;;;29.00;44.23
61805;BME280;47725;47.912;7.356;2022-07-23T17:08:54;99340.85;;;29.03;44.02
61805;BME280;47725;47.912;7.356;2022-07-23T17:12:54;99343.10;;;29.07;43.98
61805;BME280;47725;47.912;7.356;2022-07-23T17:16:54;99343.73;;;29.10;43.97
61805;BME280;47725;47.912;7.356;2022-07-23T17:20:54;99343.76;;;29.12;43.99
61805;BME280;47725;47.912;7.356;2022-07-23T17:24:54;99345.29;;;29.14;44.00
61805;BME280;47725;47.912;7.356;2022-07-23T17:28:54;99348.07;;;29.19;43.21
61805;BME280;47725;47.912;7.356;2022-07-23T17:32:54;99349.35;;;29.30;42.89
61805;BME280;47725;47.912;7.356;2022-07-23T17:36:54;99351.09;;;29.39;42.83
61805;BME280;47725;47.912;7.356;2022-07-23T17:40:54;99351.34;;;29.46;42.85
61805;BME280;47725;47.912;7.356;2022-07-23T17:44:54;99353.11;;;29.51;42.80
61805;BME280;47725;47.912;7.356;2022-07-23T17:48:54;99354.83;;;29.55;42.81
61805;BME280;47725;47.912;7.356;2022-07-23T17:52:54;99356.83;;;29.55;43.15
61805;BME280;47725;47.912;7.356;2022-07-23T17:56:54;99359.42;;;29.56;43.21
61805;BME280;47725;47.912;7.356;2022-07-23T18:00:54;99361.85;;;29.55;43.24
61805;BME280;47725;47.912;7.356;2022-07-23T18:04:54;99365.37;;;29.55;43.33
61805;BME280;47725;47.912;7.356;2022-07-23T18:08:57;99369.39;;;29.54;43.34
61805;BME280;47725;47.912;7.356;2022-07-23T18:12:54;99374.28;;;29.52;43.57
61805;BME280;47725;47.912;7.356;2022-07-23T18:16:54;99377.58;;;29.49;43.63
61805;BME280;47725;47.912;7.356;2022-07-23T18:20:54;99381.00;;;29.47;43.64
61805;BME280;47725;47.912;7.356;2022-07-23T18:24:54;99384.07;;;29.45;43.67
61805;BME280;47725;47.912;7.356;2022-07-23T18:28:54;99386.30;;;29.44;43.69
61805;BME280;47725;47.912;7.356;2022-07-23T18:32:54;99388.45;;;29.43;43.70
61805;BME280;47725;47.912;7.356;2022-07-23T18:36:54;99391.82;;;29.42;43.68
61805;BME280;47725;47.912;7.356;2022-07-23T18:40:57;99395.71;;;29.42;43.67
61805;BME280;47725;47.912;7.356;2022-07-23T18:44:54;99399.81;;;29.41;43.66
61805;BME280;47725;47.912;7.356;2022-07-23T18:48:54;99403.33;;;29.41;43.70
61805;BME280;47725;47.912;7.356;2022-07-23T18:52:54;99408.10;;;29.42;43.47
61805;BME280;47725;47.912;7.356;2022-07-23T18:56:54;99413.26;;;29.45;43.33
61805;BME280;47725;47.912;7.356;2022-07-23T19:00:54;99418.64;;;29.46;43.48
61805;BME280;47725;47.912;7.356;2022-07-23T19:04:54;99423.50;;;29.45;43.68
61805;BME280;47725;47.912;7.356;2022-07-23T19:08:54;99427.15;;;29.43;43.73
61805;BME280;47725;47.912;7.356;2022-07-23T19:12:54;99430.22;;;29.42;43.74
61805;BME280;47725;47.912;7.356;2022-07-23T19:16:54;99432.21;;;29.41;43.72
61805;BME280;47725;47.912;7.356;2022-07-23T19:20:54;99434.30;;;29.30;44.86
61805;BME280;47725;47.912;7.356;2022-07-23T19:24:54;99436.49;;;29.20;44.97
61805;BME280;47725;47.912;7.356;2022-07-23T19:28:54;99439.00;;;29.13;45.04
61805;BME280;47725;47.912;7.356;2022-07-23T19:32:54;99442.63;;;29.06;45.02
61805;BME280;47725;47.912;7.356;2022-07-23T19:36:54;99446.22;;;29.02;45.02
61805;BME280;47725;47.912;7.356;2022-07-23T19:40:54;99450.59;;;28.98;45.04
61805;BME280;47725;47.912;7.356;2022-07-23T19:44:54;99455.17;;;28.96;45.06
61805;BME280;47725;47.912;7.356;2022-07-23T19:48:54;99462.05;;;28.94;45.05
61805;BME280;47725;47.912;7.356;2022-07-23T19:52:54;99468.75;;;28.93;45.10
61805;BME280;47725;47.912;7.356;2022-07-23T19:56:54;99474.98;;;28.92;45.07
61805;BME280;47725;47.912;7.356;2022-07-23T20:00:54;99481.37;;;28.93;44.89
61805;BME280;47725;47.912;7.356;2022-07-23T20:04:54;99485.76;;;28.94;45.00
61805;BME280;47725;47.912;7.356;2022-07-23T20:08:54;99490.83;;;28.94;45.07
61805;BME280;47725;47.912;7.356;2022-07-23T20:12:54;99496.77;;;28.93;45.13
61805;BME280;47725;47.912;7.356;2022-07-23T20:16:54;99503.34;;;28.93;45.08
61805;BME280;47725;47.912;7.356;2022-07-23T20:20:54;99508.20;;;28.96;44.43
61805;BME280;47725;47.912;7.356;2022-07-23T20:24:54;99512.48;;;29.05;44.06
61805;BME280;47725;47.912;7.356;2022-07-23T20:28:54;99515.55;;;29.13;43.88
61805;BME280;47725;47.912;7.356;2022-07-23T20:32:54;99518.56;;;29.21;43.79
61805;BME280;47725;47.912;7.356;2022-07-23T20:36:54;99521.77;;;29.27;43.78
61805;BME280;47725;47.912;7.356;2022-07-23T20:40:54;99523.86;;;29.32;43.77
61805;BME280;47725;47.912;7.356;2022-07-23T20:44:54;99525.01;;;29.35;43.76
61805;BME280;47725;47.912;7.356;2022-07-23T20:48:54;99526.73;;;29.38;43.75
61805;BME280;47725;47.912;7.356;2022-07-23T20:52:54;99529.02;;;29.39;43.79
61805;BME280;47725;47.912;7.356;2022-07-23T20:56:54;99532.65;;;29.41;43.75
61805;BME280;47725;47.912;7.356;2022-07-23T21:00:54;99536.69;;;29.43;43.74
61805;BME280;47725;47.912;7.356;2022-07-23T21:04:54;99540.52;;;29.45;43.50
61805;BME280;47725;47.912;7.356;2022-07-23T21:08:54;99542.27;;;29.46;43.84
61805;BME280;47725;47.912;7.356;2022-07-23T21:12:54;99545.06;;;29.42;44.24
61805;BME280;47725;47.912;7.356;2022-07-23T21:16:54;99548.16;;;29.38;44.35
61805;BME280;47725;47.912;7.356;2022-07-23T21:20:54;99550.73;;;29.32;44.66
61805;BME280;47725;47.912;7.356;2022-07-23T21:24:54;99553.91;;;29.27;44.71
61805;BME280;47725;47.912;7.356;2022-07-23T21:28:54;99556.41;;;29.23;44.73
61805;BME280;47725;47.912;7.356;2022-07-23T21:32:54;99558.92;;;29.19;44.75
61805;BME280;47725;47.912;7.356;2022-07-23T21:36:54;99559.66;;;29.21;43.98
61805;BME280;47725;47.912;7.356;2022-07-23T21:40:54;99559.04;;;29.29;43.64